createdAt,value
2022-10-19T00:01:20.585Z,4.80
2022-10-19T00:04:22.353Z,5.20
2022-10-19T00:07:23.953Z,4.70
2022-10-19T00:10:25.556Z,5.13
2022-10-19T00:13:27.137Z,4.73
2022-10-19T00:16:31.114Z,4.30
2022-10-19T00:19:32.742Z,4.43
2022-10-19T00:22:34.701Z,4.73
2022-10-19T00:25:38.354Z,4.50
2022-10-19T00:28:40.230Z,4.63
2022-10-19T00:31:42.701Z,4.43
2022-10-19T00:34:44.313Z,4.70
2022-10-19T00:37:45.979Z,4.80
2022-10-19T00:40:48.454Z,6.03
2022-10-19T00:43:57.911Z,5.53
2022-10-19T00:47:03.131Z,5.30
2022-10-19T00:50:05.511Z,5.20
2022-10-19T00:53:07.208Z,5.10
2022-10-19T00:56:14.315Z,4.80
2022-10-19T00:59:19.742Z,4.60
2022-10-19T01:02:21.429Z,4.50
2022-10-19T01:05:23.492Z,5.00
2022-10-19T01:08:25.679Z,4.70
2022-10-19T01:11:32.346Z,4.80
2022-10-19T01:14:47.883Z,5.43
2022-10-19T01:18:01.245Z,4.47
2022-10-19T01:21:23.208Z,4.47
2022-10-19T01:24:32.652Z,6.33
2022-10-19T01:27:50.333Z,6.97
2022-10-19T01:31:07.847Z,6.93
2022-10-19T01:34:17.782Z,6.47
2022-10-19T01:37:25.278Z,7.47
2022-10-19T01:40:42.524Z,8.17
2022-10-19T01:44:10.310Z,7.00
2022-10-19T01:47:20.079Z,7.30
2022-10-19T01:50:31.540Z,6.73
2022-10-19T01:53:39.059Z,7.90
2022-10-19T01:56:43.225Z,9.13
2022-10-19T01:59:45.970Z,9.50
2022-10-19T02:02:50.655Z,8.83
2022-10-19T02:05:54.102Z,8.70
2022-10-19T02:08:55.979Z,8.27
2022-10-19T02:12:01.918Z,9.27
2022-10-19T02:15:14.149Z,9.37
2022-10-19T02:18:19.707Z,8.73
2022-10-19T02:21:21.573Z,8.73
2022-10-19T02:24:23.184Z,6.80
2022-10-19T02:27:25.043Z,7.53
2022-10-19T02:30:26.817Z,7.37
2022-10-19T02:33:29.393Z,7.83
2022-10-19T02:36:31.056Z,6.33
2022-10-19T02:39:33.480Z,5.43
2022-10-19T02:42:54.223Z,5.50
2022-10-19T02:46:14.447Z,4.83
2022-10-19T02:49:16.384Z,4.97
2022-10-19T02:52:18.116Z,4.47
2022-10-19T02:55:19.832Z,5.33
2022-10-19T02:58:21.493Z,6.13
2022-10-19T03:01:23.197Z,5.90
2022-10-19T03:04:25.030Z,5.43
2022-10-19T03:07:27.079Z,5.23
2022-10-19T03:10:28.750Z,5.13
2022-10-19T03:13:30.347Z,5.10
2022-10-19T03:16:31.937Z,5.27
2022-10-19T03:19:35.126Z,5.30
2022-10-19T03:22:37.237Z,5.40
2022-10-19T03:25:38.984Z,5.00
2022-10-19T03:28:40.998Z,5.13
2022-10-19T03:31:42.664Z,5.53
2022-10-19T03:34:44.339Z,5.63
2022-10-19T03:37:46.013Z,6.30
2022-10-19T03:40:47.605Z,8.10
2022-10-19T03:43:49.695Z,6.40
2022-10-19T03:46:51.413Z,7.27
2022-10-19T03:49:53.068Z,6.60
2022-10-19T03:52:55.292Z,6.50
2022-10-19T03:56:08.588Z,6.50
2022-10-19T03:59:15.040Z,7.53
2022-10-19T04:02:16.692Z,6.87
2022-10-19T04:05:18.312Z,7.10
2022-10-19T04:08:19.939Z,6.97
2022-10-19T04:11:24.744Z,7.07
2022-10-19T04:14:32.164Z,6.83
2022-10-19T04:17:35.337Z,7.43
2022-10-19T04:20:42.986Z,6.47
2022-10-19T04:23:44.619Z,6.80
2022-10-19T04:26:49.090Z,7.83
2022-10-19T04:29:50.700Z,7.17
2022-10-19T04:32:52.377Z,6.70
2022-10-19T04:36:06.240Z,5.90
2022-10-19T04:39:08.271Z,6.30
2022-10-19T04:42:10.153Z,7.03
2022-10-19T04:45:11.795Z,6.40
2022-10-19T04:48:15.126Z,7.10
2022-10-19T04:51:19.729Z,6.07
2022-10-19T04:54:29.543Z,7.13
2022-10-19T04:57:31.255Z,7.07
2022-10-19T05:00:33.155Z,6.83
2022-10-19T05:03:34.927Z,8.10
2022-10-19T05:06:36.619Z,6.40
2022-10-19T05:09:40.295Z,7.37
2022-10-19T05:12:41.986Z,7.00
2022-10-19T05:15:43.627Z,6.63
2022-10-19T05:18:50.068Z,7.00
2022-10-19T05:21:51.685Z,7.10
2022-10-19T05:24:55.901Z,7.53
2022-10-19T05:27:59.738Z,8.07
2022-10-19T05:31:12.035Z,8.30
2022-10-19T05:34:13.637Z,10.73
2022-10-19T05:37:17.051Z,6.90
2022-10-19T05:40:18.657Z,6.40
2022-10-19T05:43:20.249Z,8.80
2022-10-19T05:46:22.712Z,6.73
2022-10-19T05:49:24.447Z,7.53
2022-10-19T05:52:26.152Z,7.00
2022-10-19T05:55:27.783Z,6.27
2022-10-19T05:58:30.334Z,6.80
2022-10-19T06:01:33.102Z,6.63
2022-10-19T06:04:34.696Z,7.67
2022-10-19T06:07:36.771Z,6.77
2022-10-19T06:10:38.717Z,5.60
2022-10-19T06:13:41.726Z,5.73
2022-10-19T06:16:46.520Z,5.47
2022-10-19T06:19:48.137Z,6.07
2022-10-19T06:22:49.769Z,7.97
2022-10-19T06:25:51.353Z,6.00
2022-10-19T06:28:56.070Z,6.20
2022-10-19T06:32:00.379Z,5.90
2022-10-19T06:35:16.393Z,6.20
2022-10-19T06:38:18.111Z,6.30
2022-10-19T06:41:20.007Z,6.70
2022-10-19T06:44:21.768Z,5.73
2022-10-19T06:47:23.372Z,7.10
2022-10-19T06:50:24.989Z,6.33
2022-10-19T06:53:27.135Z,5.97
2022-10-19T06:56:28.822Z,5.67
2022-10-19T06:59:30.458Z,5.20
2022-10-19T07:02:33.455Z,5.73
2022-10-19T07:05:35.089Z,5.30
2022-10-19T07:08:39.283Z,6.20
2022-10-19T07:11:45.741Z,5.43
2022-10-19T07:14:48.081Z,5.00
2022-10-19T07:17:49.712Z,5.13
2022-10-19T07:20:59.134Z,5.30
2022-10-19T07:24:00.738Z,5.17
2022-10-19T07:27:02.599Z,4.63
2022-10-19T07:30:04.464Z,4.20
2022-10-19T07:33:08.896Z,4.10
2022-10-19T07:36:11.291Z,4.13
2022-10-19T07:39:13.137Z,3.70
2022-10-19T07:42:14.769Z,3.70
2022-10-19T07:45:16.463Z,3.63
2022-10-19T07:48:18.054Z,3.47
2022-10-19T07:51:21.150Z,2.70
2022-10-19T07:54:24.487Z,2.83
2022-10-19T07:57:26.614Z,5.10
2022-10-19T08:00:28.385Z,4.70
2022-10-19T08:07:14.592Z,4.77
2022-10-19T08:10:16.297Z,3.30
2022-10-19T08:13:17.905Z,3.07
2022-10-19T08:16:40.495Z,1.63
2022-10-19T08:20:00.568Z,2.90
2022-10-19T08:23:02.224Z,2.00
2022-10-19T08:26:03.890Z,1.70
2022-10-19T08:29:15.150Z,1.30
2022-10-19T08:32:17.049Z,1.93
2022-10-19T08:35:18.670Z,1.50
2022-10-19T08:38:20.733Z,1.70
2022-10-19T08:41:25.373Z,1.57
2022-10-19T08:45:01.173Z,1.70
2022-10-19T08:48:22.356Z,1.60
2022-10-19T08:51:24.137Z,3.10
2022-10-19T08:54:35.693Z,2.87
2022-10-19T08:57:37.496Z,2.47
2022-10-19T09:01:37.530Z,1.47
2022-10-19T09:04:53.214Z,1.57
2022-10-19T09:07:55.321Z,1.10
2022-10-19T09:10:57.351Z,1.40
2022-10-19T09:14:11.316Z,1.30
2022-10-19T09:17:17.075Z,1.30
2022-10-19T09:20:27.916Z,1.47
2022-10-19T09:23:38.638Z,1.63
2022-10-19T09:26:52.028Z,1.47
2022-10-19T09:30:06.400Z,1.50
2022-10-19T09:33:18.981Z,3.57
2022-10-19T09:36:27.662Z,1.60
2022-10-19T09:39:47.867Z,1.00
2022-10-19T09:42:58.188Z,1.10
2022-10-19T09:46:30.002Z,1.00
2022-10-19T09:49:43.327Z,1.20
2022-10-19T09:52:50.793Z,1.23
2022-10-19T09:56:07.613Z,1.00
2022-10-19T09:59:21.819Z,0.83
2022-10-19T10:02:31.794Z,1.20
2022-10-19T10:05:40.903Z,1.20
2022-10-19T10:08:52.615Z,1.57
2022-10-19T10:11:58.312Z,2.93
2022-10-19T10:15:00.809Z,1.63
2022-10-19T10:18:03.527Z,1.50
2022-10-19T10:21:25.529Z,1.47
2022-10-19T10:24:30.383Z,1.50
2022-10-19T10:27:35.810Z,1.80
2022-10-19T10:30:37.847Z,2.00
2022-10-19T10:33:44.994Z,1.60
2022-10-19T10:36:51.300Z,1.50
2022-10-19T10:39:56.615Z,1.43
2022-10-19T10:43:16.894Z,1.57
2022-10-19T10:46:34.425Z,1.87
2022-10-19T10:49:37.435Z,1.93
2022-10-19T10:52:39.409Z,1.73
2022-10-19T10:55:44.477Z,1.90
2022-10-19T10:58:58.368Z,1.73
2022-10-19T11:02:04.362Z,2.00
2022-10-19T11:05:15.126Z,2.00
2022-10-19T11:08:41.620Z,2.37
2022-10-19T11:11:47.429Z,2.70
2022-10-19T11:14:55.160Z,2.93
2022-10-19T11:18:00.210Z,3.20
2022-10-19T11:21:24.432Z,2.60
2022-10-19T11:24:49.712Z,2.93
2022-10-19T11:28:08.687Z,2.93
2022-10-19T11:31:25.725Z,3.10
2022-10-19T11:34:48.611Z,3.07
2022-10-19T11:38:31.260Z,2.97
2022-10-19T11:41:44.551Z,3.37
2022-10-19T11:44:54.287Z,2.87
2022-10-19T11:48:16.598Z,3.63
2022-10-19T11:51:22.171Z,4.30
2022-10-19T11:54:53.189Z,3.20
2022-10-19T11:58:05.518Z,3.00
2022-10-19T12:01:34.610Z,3.30
2022-10-19T12:04:46.315Z,3.00
2022-10-19T12:08:25.470Z,3.13
2022-10-19T12:11:45.254Z,3.67
2022-10-19T12:14:51.678Z,3.70
2022-10-19T12:17:57.102Z,3.10
2022-10-19T12:21:03.190Z,3.00
2022-10-19T12:24:12.485Z,3.40
2022-10-19T12:27:16.247Z,3.53
2022-10-19T12:30:23.440Z,3.10
2022-10-19T12:33:42.453Z,3.00
2022-10-19T12:37:11.280Z,2.80
2022-10-19T12:40:27.956Z,3.13
2022-10-19T12:43:51.114Z,2.90
2022-10-19T12:47:20.017Z,2.80
2022-10-19T12:50:50.578Z,3.07
2022-10-19T12:54:10.561Z,2.60
2022-10-19T12:57:29.164Z,2.87
2022-10-19T13:00:34.517Z,2.53
2022-10-19T13:03:44.895Z,2.70
2022-10-19T13:06:56.576Z,2.83
2022-10-19T13:10:04.256Z,2.60
2022-10-19T13:13:44.646Z,2.60
2022-10-19T13:17:03.332Z,2.70
2022-10-19T13:20:14.576Z,2.00
2022-10-19T13:23:17.254Z,2.23
2022-10-19T13:26:30.753Z,2.57
2022-10-19T13:29:38.665Z,2.63
2022-10-19T13:32:48.151Z,2.33
2022-10-19T13:35:59.379Z,2.90
2022-10-19T13:39:06.109Z,2.40
2022-10-19T13:42:25.675Z,2.20
2022-10-19T13:45:27.549Z,2.77
2022-10-19T13:48:37.688Z,2.30
2022-10-19T13:52:13.396Z,2.27
2022-10-19T13:55:39.031Z,2.30
2022-10-19T13:59:03.807Z,2.00
2022-10-19T14:02:09.273Z,2.50
2022-10-19T14:05:20.096Z,2.20
2022-10-19T14:08:58.746Z,1.90
2022-10-19T14:12:09.157Z,2.23
2022-10-19T14:15:22.813Z,2.00
2022-10-19T14:18:28.855Z,1.90
2022-10-19T14:21:32.605Z,1.80
2022-10-19T14:24:38.545Z,2.10
2022-10-19T14:27:40.227Z,2.10
2022-10-19T14:30:41.937Z,2.03
2022-10-19T14:33:47.550Z,2.30
2022-10-19T14:36:50.488Z,2.13
2022-10-19T14:40:26.365Z,2.30
2022-10-19T14:43:31.870Z,2.17
2022-10-19T14:46:34.706Z,2.10
2022-10-19T14:49:36.543Z,2.20
2022-10-19T14:52:39.990Z,2.60
2022-10-19T14:55:42.155Z,2.33
2022-10-19T14:58:49.344Z,2.10
2022-10-19T15:01:55.666Z,2.03
2022-10-19T15:04:59.819Z,2.00
2022-10-19T15:08:48.486Z,1.90
2022-10-19T15:11:50.913Z,1.90
2022-10-19T15:14:52.838Z,1.80
2022-10-19T15:17:56.936Z,2.00
2022-10-19T15:21:14.129Z,1.77
2022-10-19T15:24:28.064Z,1.70
2022-10-19T15:27:36.804Z,2.00
2022-10-19T15:30:38.524Z,1.80
2022-10-19T15:33:46.941Z,1.93
2022-10-19T15:37:01.622Z,1.77
2022-10-19T15:40:30.358Z,2.00
2022-10-19T15:43:44.884Z,1.73
2022-10-19T15:46:49.588Z,1.80
2022-10-19T15:49:56.160Z,1.53
2022-10-19T15:52:59.427Z,1.83
2022-10-19T15:56:01.145Z,2.00
2022-10-19T15:59:05.964Z,1.63
2022-10-19T16:02:13.664Z,1.50
2022-10-19T16:05:15.341Z,1.77
2022-10-19T16:08:16.950Z,1.50
2022-10-19T16:11:21.352Z,1.40
2022-10-19T16:14:24.193Z,1.40
2022-10-19T16:17:25.814Z,1.50
2022-10-19T16:20:29.182Z,1.93
2022-10-19T16:23:36.575Z,1.50
2022-10-19T16:26:41.098Z,1.50
2022-10-19T16:29:47.191Z,1.97
2022-10-19T16:32:49.575Z,1.70
2022-10-19T16:35:51.256Z,1.40
2022-10-19T16:38:52.836Z,2.07
2022-10-19T16:41:54.489Z,1.67
2022-10-19T16:44:56.105Z,1.70
2022-10-19T16:47:58.173Z,1.90
2022-10-19T16:51:25.052Z,1.63
2022-10-19T16:54:26.980Z,2.23
2022-10-19T16:57:28.848Z,2.00
2022-10-19T17:00:30.475Z,2.10
2022-10-19T17:03:32.077Z,2.00
2022-10-19T17:06:38.926Z,2.13
2022-10-19T17:09:42.456Z,1.57
2022-10-19T17:12:47.439Z,1.97
2022-10-19T17:15:49.061Z,1.80
2022-10-19T17:18:53.308Z,2.33
2022-10-19T17:21:57.522Z,1.77
2022-10-19T17:24:59.106Z,2.00
2022-10-19T17:28:00.687Z,1.77
2022-10-19T17:31:12.016Z,2.20
2022-10-19T17:34:14.271Z,2.00
2022-10-19T17:37:18.796Z,1.80
2022-10-19T17:40:20.404Z,2.37
2022-10-19T17:43:22.005Z,2.20
2022-10-19T17:46:26.570Z,2.10
2022-10-19T17:49:29.710Z,2.50
2022-10-19T17:52:31.423Z,2.30
2022-10-19T17:55:36.722Z,2.50
2022-10-19T17:58:39.914Z,2.30
2022-10-19T18:01:42.356Z,3.00
2022-10-19T18:04:43.959Z,2.57
2022-10-19T18:07:49.351Z,2.87
2022-10-19T18:11:01.328Z,2.90
2022-10-19T18:14:03.905Z,2.60
2022-10-19T18:17:08.715Z,2.47
2022-10-19T18:20:11.270Z,2.60
2022-10-19T18:23:12.908Z,2.33
2022-10-19T18:26:21.911Z,2.70
2022-10-19T18:29:32.630Z,2.60
2022-10-19T18:32:37.877Z,3.20
2022-10-19T18:35:40.396Z,2.70
2022-10-19T18:38:42.047Z,2.37
2022-10-19T18:41:46.016Z,2.90
2022-10-19T18:44:47.616Z,2.70
2022-10-19T18:47:49.196Z,2.90
2022-10-19T18:50:50.928Z,2.93
2022-10-19T18:53:52.725Z,2.90
2022-10-19T18:56:55.222Z,2.97
2022-10-19T18:59:56.806Z,3.23
2022-10-19T19:02:58.480Z,3.40
2022-10-19T19:06:05.773Z,3.27
2022-10-19T19:09:19.141Z,3.23
2022-10-19T19:12:22.280Z,3.50
2022-10-19T19:15:23.942Z,3.70
2022-10-19T19:18:26.249Z,3.20
2022-10-19T19:21:30.084Z,3.20
2022-10-19T19:24:32.696Z,4.00
2022-10-19T19:27:34.365Z,4.23
2022-10-19T19:30:47.402Z,4.20
2022-10-19T19:33:49.037Z,4.17
2022-10-19T19:36:50.837Z,4.20
2022-10-19T19:39:52.445Z,4.33
2022-10-19T19:42:54.072Z,4.80
2022-10-19T19:45:57.481Z,5.40
2022-10-19T19:49:03.420Z,5.20
2022-10-19T19:52:05.089Z,5.20
2022-10-19T19:55:06.882Z,5.23
2022-10-19T19:58:15.977Z,5.57
2022-10-19T20:01:20.057Z,5.70
2022-10-19T20:04:21.755Z,5.70
2022-10-19T20:07:23.407Z,5.83
2022-10-19T20:10:25.364Z,5.83
2022-10-19T20:13:27.020Z,5.80
2022-10-19T20:16:32.896Z,6.33
2022-10-19T20:19:34.518Z,6.27
2022-10-19T20:22:36.499Z,6.20
2022-10-19T20:25:38.144Z,6.17
2022-10-19T20:28:39.723Z,6.43
2022-10-19T20:31:41.588Z,6.60
2022-10-19T20:34:43.163Z,6.63
2022-10-19T20:37:49.155Z,7.00
2022-10-19T20:40:50.760Z,6.50
2022-10-19T20:43:53.734Z,6.33
2022-10-19T20:46:55.413Z,7.20
2022-10-19T20:49:57.111Z,6.90
2022-10-19T20:52:58.717Z,6.90
2022-10-19T20:56:08.027Z,7.60
2022-10-19T20:59:15.536Z,7.70
2022-10-19T21:02:17.212Z,7.90
2022-10-19T21:05:19.001Z,8.13
2022-10-19T21:08:20.676Z,8.90
2022-10-19T21:11:27.269Z,9.20
2022-10-19T21:14:29.985Z,8.63
2022-10-19T21:20:38.334Z,9.43
2022-10-19T21:23:40.363Z,9.03
2022-10-19T21:26:42.706Z,9.33
2022-10-19T21:29:44.363Z,10.00
2022-10-19T21:32:47.934Z,9.70
2022-10-19T21:38:52.235Z,9.40
2022-10-19T21:41:53.884Z,9.57
2022-10-19T21:45:17.941Z,9.40
2022-10-19T21:48:23.712Z,8.90
2022-10-19T21:51:31.671Z,9.27
2022-10-19T21:54:33.260Z,9.13
2022-10-19T21:57:35.147Z,9.40
2022-10-19T22:00:37.172Z,9.40
2022-10-19T22:03:38.771Z,9.43
2022-10-19T22:06:40.960Z,9.13
2022-10-19T22:09:42.675Z,9.93
2022-10-19T22:12:47.116Z,9.70
2022-10-19T22:15:48.720Z,8.87
2022-10-19T22:18:50.392Z,8.90
2022-10-19T22:21:52.017Z,9.87
2022-10-19T22:24:53.852Z,9.20
2022-10-19T22:27:55.520Z,9.20
2022-10-19T22:30:58.672Z,9.33
2022-10-19T22:34:02.212Z,9.17
2022-10-19T22:37:03.860Z,9.07
2022-10-19T22:40:06.041Z,9.33
2022-10-19T22:43:07.677Z,9.70
2022-10-19T22:46:09.303Z,10.20
2022-10-19T22:49:11.024Z,9.17
2022-10-19T22:52:12.794Z,10.07
2022-10-19T22:55:14.601Z,10.10
2022-10-19T22:58:18.333Z,10.10
2022-10-19T23:01:20.043Z,10.10
2022-10-19T23:04:21.671Z,10.67
2022-10-19T23:07:23.290Z,9.97
2022-10-19T23:10:24.988Z,11.23
2022-10-19T23:13:26.865Z,10.03
2022-10-19T23:19:35.082Z,10.30
2022-10-19T23:22:36.661Z,10.83
2022-10-19T23:25:38.274Z,10.70
2022-10-19T23:28:41.744Z,10.33
2022-10-19T23:31:43.424Z,10.43
2022-10-19T23:34:48.494Z,10.17
2022-10-19T23:37:50.281Z,10.17
2022-10-19T23:40:51.926Z,10.07
2022-10-19T23:43:53.839Z,10.60
2022-10-19T23:46:55.496Z,9.93
2022-10-19T23:49:57.113Z,10.53
2022-10-19T23:52:58.721Z,10.47
2022-10-19T23:56:14.171Z,10.43
2022-10-19T23:59:15.781Z,10.27
